Prudhoe Bay, AK

5:46 AM AKST on February 14, 2016 (GMT -0900)
Deadhorse | | Change Station
CLOSE
Current Station
Airport
Location: Deadhorse,
Elevation: 59 ft
Nearby Weather Stations
Active Advisory: Blizzard Warning

Elev 59 ft 70.19 °N, 148.47 °W | Updated 35 minutes ago

Light Snow
Light Snow Blowing Snow Mist
2 °F
Feels Like -24 °F
N
31
Wind Variable Wind from East
Gusts 38 mph

Today
High -- | Low -- °F
--% Chance of Precip.
Yesterday
High -- | Low -- °F
Precip. -- in
Pressure 29.66 in
Visibility 1.0 miles
Clouds
Windchill -24 °F
Dew Point -2 °F
Humidity 83%
Rainfall 0.00 in
Snow Depth Not available.
9:34 AM 4:42 PM
Waxing Crescent, 42% visible
SPECI PASC 141411Z 08027G33KT 1SM R05/P6000FT -SN BLSN BR VV004 M17/M19 A2966 RMK AO2 PK WND 08033/1411 T11671189 PNO $
Pressure 29.66 in
Visibility 1.0 miles
Clouds
Windchill -24 °F
Dew Point -2 °F
Humidity 83%
Rainfall 0.00 in
Snow Depth Not available.
9:34 AM 4:42 PM
Waxing Crescent, 42% visible
SPECI PASC 141411Z 08027G33KT 1SM R05/P6000FT -SN BLSN BR VV004 M17/M19 A2966 RMK AO2 PK WND 08033/1411 T11671189 PNO $

10-Day Weather Forecast

Almanac

Astronomy

Feb. 14, 2016 Rise Set
Actual Time
Civil Twilight
Nautical Twilight
Astronomical Twilight
Moon
Length of Visible Light
Length of Day
Tomorrow will be .
, % of the Moon is Illuminated

Today's Extremes

State Highs State Lows

Community

WunderPhotos

Upload Photos

1,892,781 photos uploaded!

WunderBlog® & News

Nearby

Air Quality

  Air Quality AQ Index Pollutant
Not available.

Snow Depth

Station Depth Elevation

Earthquake Activity

City Distance Mag. Time & Date
Minimum magnitude displayed is 2.5.

Coastal Water Temperatures

Place Temperature

Stations

Nearby Weather Stations

Station Location Temp. Windchill Dew Point Humidity Wind Precip. Elev Updated Type
                   

Watches & Warnings

Blizzard Warning
Issued: 3:59 AM AKST Feb. 14, 2016 – National Weather Service

... Blizzard Warning now in effect until 6 PM akst this
evening...

* blowing snow... reducing visibility to one quarter mile or less
at times.

* Winds... east winds 25 to 35 mph with gusts to 45 mph.

* Timing... blizzard conditions continuing today. Conditions
improving tonight as winds decrease.

* Impacts... visibility will be very poor and snow will
accumulate into drifts. Whiteout conditions will occur. Travel
and outdoor activities will be difficult.

Precautionary/preparedness actions...

A Blizzard Warning means severe winter weather conditions in
blowing snow with strong winds and very poor visibilities are
occurring or expected.